N12973 KPDX-
Flight info
| Callsign | N12973 |
|---|---|
| Flight time | N/A |
| Altitude | VFR/035 |
| Route | VFR DEP |
| Aircraft | C172/L-DOV/C |
Departure
| Time | 2026-05-07 09:14 |
|---|---|
| Airport | Portland International Airport (KPDX) |
Arrival
| Time | N/A |
|---|---|
| Airport | - |
| Time | Latitude | Longitude | Altitude | Speed | Heading |
|---|---|---|---|---|---|
| 2026-05-07 09:02 | 45.58565 | -122.57979 | 19 ft | 0 kts | 94° |
| 2026-05-07 09:03 | 45.58566 | -122.57976 | 19 ft | 0 kts | 84° |
| 2026-05-07 09:04 | 45.58612 | -122.57899 | 19 ft | 12 kts | 40° |
| 2026-05-07 09:05 | 45.58670 | -122.57847 | 19 ft | 10 kts | 344° |
| 2026-05-07 09:05 | 45.58724 | -122.57947 | 19 ft | 17 kts | 300° |
| 2026-05-07 09:05 | 45.58810 | -122.58168 | 19 ft | 32 kts | 297° |
| 2026-05-07 09:05 | 45.58936 | -122.58491 | 19 ft | 39 kts | 299° |
| 2026-05-07 09:06 | 45.59025 | -122.58721 | 19 ft | 0 kts | 300° |
| 2026-05-07 09:06 | 45.59053 | -122.58793 | 19 ft | 18 kts | 295° |
| 2026-05-07 09:06 | 45.59120 | -122.58961 | 19 ft | 18 kts | 297° |
| 2026-05-07 09:06 | 45.59179 | -122.59113 | 19 ft | 18 kts | 298° |
| 2026-05-07 09:07 | 45.59246 | -122.59287 | 19 ft | 19 kts | 300° |
| 2026-05-07 09:07 | 45.59308 | -122.59445 | 21 ft | 16 kts | 297° |
| 2026-05-07 09:07 | 45.59360 | -122.59581 | 22 ft | 16 kts | 298° |
| 2026-05-07 09:07 | 45.59416 | -122.59726 | 22 ft | 16 kts | 297° |
| 2026-05-07 09:08 | 45.59376 | -122.59850 | 22 ft | 15 kts | 225° |
| 2026-05-07 09:08 | 45.59285 | -122.59977 | 21 ft | 19 kts | 224° |
| 2026-05-07 09:08 | 45.59187 | -122.60116 | 19 ft | 19 kts | 225° |
| 2026-05-07 09:08 | 45.59096 | -122.60243 | 19 ft | 31 kts | 223° |
| 2026-05-07 09:09 | 45.58989 | -122.60402 | 19 ft | 14 kts | 228° |
| 2026-05-07 09:09 | 45.58961 | -122.60442 | 18 ft | 0 kts | 220° |
| 2026-05-07 09:09 | 45.58916 | -122.60509 | 17 ft | 21 kts | 222° |
| 2026-05-07 09:10 | 45.58809 | -122.60659 | 16 ft | 19 kts | 226° |
| 2026-05-07 09:10 | 45.58726 | -122.60776 | 16 ft | 17 kts | 225° |
| 2026-05-07 09:10 | 45.58642 | -122.60898 | 16 ft | 16 kts | 225° |
| 2026-05-07 09:10 | 45.58569 | -122.61000 | 16 ft | 13 kts | 223° |
| 2026-05-07 09:11 | 45.58490 | -122.61110 | 16 ft | 23 kts | 223° |
| 2026-05-07 09:11 | 45.58369 | -122.61288 | 16 ft | 23 kts | 226° |
| 2026-05-07 09:11 | 45.58267 | -122.61429 | 16 ft | 17 kts | 223° |
| 2026-05-07 09:11 | 45.58204 | -122.61532 | 16 ft | 2 kts | 242° |
| 2026-05-07 09:12 | 45.58195 | -122.61553 | 16 ft | 9 kts | 245° |
| 2026-05-07 09:12 | 45.58195 | -122.61587 | 16 ft | 0 kts | 296° |
| 2026-05-07 09:13 | 45.58249 | -122.61634 | 16 ft | 17 kts | 357° |
| 2026-05-07 09:13 | 45.58441 | -122.61398 | 16 ft | 62 kts | 43° |
| 2026-05-07 09:13 | 45.58811 | -122.60884 | 102 ft | 82 kts | 37° |
| 2026-05-07 09:14 | 45.59208 | -122.60301 | 302 ft | 83 kts | 38° |
| 2026-05-07 09:14 | 45.59633 | -122.59746 | 493 ft | 83 kts | 38° |
| 2026-05-07 09:14 | 45.60048 | -122.59215 | 711 ft | 81 kts | 36° |
| 2026-05-07 09:14 | 45.60470 | -122.58677 | 901 ft | 81 kts | 35° |
| 2026-05-07 09:15 | 45.60921 | -122.58152 | 1066 ft | 83 kts | 31° |
| 2026-05-07 09:15 | 45.61375 | -122.57683 | 1278 ft | 80 kts | 29° |
| 2026-05-07 09:15 | 45.61758 | -122.57780 | 1324 ft | 92 kts | 246° |
| 2026-05-07 09:15 | 45.61146 | -122.58273 | 1079 ft | 105 kts | 208° |
| 2026-05-07 09:16 | 45.60534 | -122.58678 | 906 ft | 91 kts | 209° |
| 2026-05-07 09:16 | 45.60101 | -122.59052 | 821 ft | 63 kts | 245° |
| 2026-05-07 09:16 | 45.59769 | -122.59464 | 576 ft | 62 kts | 240° |
| 2026-05-07 09:16 | 45.59473 | -122.59932 | 306 ft | 64 kts | 242° |
| 2026-05-07 09:17 | 45.59174 | -122.60352 | 85 ft | 62 kts | 226° |
| 2026-05-07 09:17 | 45.58922 | -122.60710 | 18 ft | 32 kts | 227° |
| 2026-05-07 09:17 | 45.58854 | -122.60734 | 16 ft | 4 kts | 156° |
| 2026-05-07 09:17 | 45.58829 | -122.60703 | 16 ft | 0 kts | 128° |
| 2026-05-07 09:20 | 45.58829 | -122.60702 | 16 ft | 0 kts | 128° |
| 2026-05-07 09:20 | 45.58808 | -122.60658 | 16 ft | 12 kts | 121° |
| 2026-05-07 09:21 | 45.58763 | -122.60537 | 16 ft | 16 kts | 114° |
| 2026-05-07 09:21 | 45.58685 | -122.60335 | 16 ft | 23 kts | 125° |
| 2026-05-07 09:21 | 45.58598 | -122.60330 | 16 ft | 14 kts | 189° |
| 2026-05-07 09:21 | 45.58576 | -122.60365 | 16 ft | 0 kts | 271° |